createdAt,value
2023-03-21T14:59:40.337Z,3.30
2023-03-21T15:02:31.122Z,2.78
2023-03-21T15:05:27.096Z,3.08
2023-03-21T15:08:12.476Z,2.85
2023-03-21T15:11:09.410Z,2.70
2023-03-21T15:13:55.770Z,2.63
2023-03-21T15:16:41.407Z,2.90
2023-03-21T15:19:44.829Z,2.72
2023-03-21T15:22:40.745Z,2.97
2023-03-21T15:25:30.346Z,3.35
2023-03-21T15:31:01.835Z,3.33
2023-03-21T15:33:52.386Z,3.08
2023-03-21T15:36:47.087Z,3.40
2023-03-21T15:39:33.887Z,2.92
2023-03-21T15:42:43.096Z,4.03
2023-03-21T15:45:29.309Z,3.05
2023-03-21T15:48:15.477Z,2.80
2023-03-21T15:51:07.293Z,3.30
2023-03-21T15:53:56.527Z,2.75
2023-03-21T15:56:45.994Z,3.13
2023-03-21T15:59:36.619Z,3.22
2023-03-21T16:02:25.349Z,3.17
2023-03-21T16:05:23.889Z,4.13
2023-03-21T16:08:27.313Z,3.05
2023-03-21T16:11:43.431Z,3.15
2023-03-21T16:14:28.599Z,3.40
2023-03-21T16:17:38.151Z,4.05
2023-03-21T16:20:26.807Z,4.03
2023-03-21T16:23:14.962Z,3.92
2023-03-21T16:26:01.506Z,4.43
2023-03-21T16:28:47.332Z,3.65
2023-03-21T16:31:34.404Z,3.30
2023-03-21T16:34:19.635Z,3.53
2023-03-21T16:37:04.512Z,3.20
2023-03-21T16:39:49.869Z,3.10
2023-03-21T16:42:35.526Z,3.10
2023-03-21T16:45:21.471Z,3.10
2023-03-21T16:48:08.756Z,3.63
2023-03-21T16:50:53.931Z,3.45
2023-03-21T16:53:39.419Z,3.72
2023-03-21T16:56:28.295Z,3.58
2023-03-21T16:59:14.784Z,3.25
2023-03-21T17:02:00.066Z,3.70
2023-03-21T17:04:45.087Z,4.10
2023-03-21T17:07:30.584Z,3.65
2023-03-21T17:10:22.238Z,2.83
2023-03-21T17:13:07.472Z,3.40
2023-03-21T17:15:53.109Z,3.38
2023-03-21T17:18:38.290Z,3.67
2023-03-21T17:21:28.392Z,3.60
2023-03-21T17:24:13.549Z,3.50
2023-03-21T17:27:00.873Z,3.72
2023-03-21T17:29:46.128Z,3.65
2023-03-21T17:32:31.338Z,3.67
2023-03-21T17:35:17.527Z,3.78
2023-03-21T17:38:15.630Z,3.58
2023-03-21T17:41:00.732Z,4.78
2023-03-21T17:43:46.469Z,3.78
2023-03-21T17:46:36.895Z,3.63
2023-03-21T17:49:22.479Z,3.60
2023-03-21T17:52:07.305Z,3.80
2023-03-21T17:54:52.273Z,4.05
2023-03-21T17:57:37.776Z,3.70
2023-03-21T18:00:26.285Z,3.72
2023-03-21T18:03:11.586Z,4.20
2023-03-21T18:05:57.291Z,3.08
2023-03-21T18:08:43.056Z,3.92
2023-03-21T18:11:28.305Z,3.83
2023-03-21T18:14:18.035Z,4.20
2023-03-21T18:17:03.961Z,4.15
2023-03-21T18:19:50.448Z,3.67
2023-03-21T18:22:37.126Z,4.20
2023-03-21T18:25:22.413Z,3.58
2023-03-21T18:28:11.994Z,3.65
2023-03-21T18:31:09.585Z,4.07
2023-03-21T18:33:55.965Z,3.27
2023-03-21T18:36:42.749Z,3.72
2023-03-21T18:39:28.060Z,3.97
2023-03-21T18:42:17.428Z,3.45
2023-03-21T18:45:07.782Z,3.85
2023-03-21T18:47:53.031Z,3.63
2023-03-21T18:50:38.450Z,4.03
2023-03-21T18:53:23.560Z,3.90
2023-03-21T18:56:10.330Z,3.85
2023-03-21T18:58:56.172Z,3.80
2023-03-21T19:01:41.451Z,3.90
2023-03-21T19:04:30.329Z,4.28
2023-03-21T19:07:15.989Z,4.00
2023-03-21T19:10:16.951Z,4.05
2023-03-21T19:13:03.410Z,3.30
2023-03-21T19:15:49.723Z,3.28
2023-03-21T19:18:54.819Z,4.28
2023-03-21T19:21:40.420Z,3.63
2023-03-21T19:24:28.557Z,4.05
2023-03-21T19:27:14.729Z,4.13
2023-03-21T19:30:13.386Z,3.63
2023-03-21T19:32:59.568Z,3.97
2023-03-21T19:35:46.363Z,3.67
2023-03-21T19:38:31.939Z,3.47
2023-03-21T19:41:18.494Z,3.65
2023-03-21T19:44:04.180Z,3.53
2023-03-21T19:46:51.096Z,3.83
2023-03-21T19:50:09.115Z,3.70
2023-03-21T19:52:41.453Z,3.88
2023-03-21T19:55:27.067Z,4.07
2023-03-21T19:58:12.582Z,4.05
2023-03-21T20:00:58.926Z,4.18
2023-03-21T20:03:44.626Z,3.50
2023-03-21T20:06:29.716Z,4.18
2023-03-21T20:12:21.913Z,3.38
2023-03-21T20:15:17.269Z,2.83
2023-03-21T20:18:03.584Z,3.35
2023-03-21T20:20:48.697Z,4.00
2023-03-21T20:23:38.425Z,3.55
2023-03-21T20:29:54.966Z,3.35
2023-03-21T20:32:14.266Z,3.03
2023-03-21T20:35:10.218Z,3.30
2023-03-21T20:38:02.059Z,3.58
2023-03-21T20:40:48.017Z,3.35
2023-03-21T20:44:24.413Z,3.25
2023-03-21T20:46:39.425Z,2.92
2023-03-21T20:49:24.974Z,2.88
2023-03-21T20:55:15.392Z,3.30
2023-03-21T20:58:02.164Z,4.20
2023-03-21T21:00:48.786Z,3.20
2023-03-21T21:03:39.176Z,3.78
2023-03-21T21:06:24.262Z,3.50
2023-03-21T21:09:10.582Z,4.00
2023-03-21T21:12:11.172Z,3.22
2023-03-21T21:14:56.680Z,3.10
2023-03-21T21:20:46.417Z,3.08
2023-03-21T21:23:37.039Z,3.25
2023-03-21T21:26:22.385Z,3.13
2023-03-21T21:29:07.566Z,2.87
2023-03-21T21:31:52.768Z,2.85
2023-03-21T21:34:38.163Z,3.78
2023-03-21T21:37:23.646Z,2.88
2023-03-21T21:40:15.562Z,3.25
2023-03-21T21:43:03.515Z,3.97
2023-03-21T21:45:49.460Z,3.03
2023-03-21T21:48:34.524Z,2.55
2023-03-21T21:51:26.279Z,3.53
2023-03-21T21:54:17.962Z,2.58
2023-03-21T21:57:04.101Z,2.88
2023-03-21T21:59:54.212Z,3.13
2023-03-21T22:05:26.873Z,2.22
2023-03-21T22:08:12.353Z,2.40
2023-03-21T22:10:59.488Z,2.40
2023-03-21T22:13:46.692Z,1.95
2023-03-21T22:16:31.906Z,2.38
2023-03-21T22:19:16.874Z,2.55
2023-03-21T22:22:02.154Z,2.67
2023-03-21T22:24:47.320Z,2.05
2023-03-21T22:27:32.892Z,2.28
2023-03-21T22:30:18.610Z,2.90
2023-03-21T22:33:09.687Z,2.28
2023-03-21T22:35:55.252Z,2.42
2023-03-21T22:38:41.988Z,3.20
2023-03-21T22:41:27.324Z,2.25
2023-03-21T22:44:13.155Z,2.28
2023-03-21T22:46:58.342Z,1.88
2023-03-21T22:49:45.400Z,2.47
2023-03-21T22:52:30.857Z,2.45
2023-03-21T22:55:15.917Z,2.53
2023-03-21T22:58:01.156Z,2.35
2023-03-21T23:00:47.346Z,2.22
2023-03-21T23:03:32.685Z,2.72
2023-03-21T23:06:19.575Z,2.25
2023-03-21T23:09:05.382Z,2.13
2023-03-21T23:11:50.904Z,1.85
2023-03-21T23:14:36.149Z,2.45
2023-03-21T23:17:21.180Z,2.03
2023-03-21T23:20:08.684Z,2.78
2023-03-21T23:22:53.812Z,2.33
2023-03-21T23:25:42.026Z,2.15
2023-03-21T23:28:27.644Z,2.45
2023-03-21T23:31:21.208Z,2.58
2023-03-21T23:34:06.890Z,2.53
2023-03-21T23:36:51.801Z,2.47
2023-03-21T23:39:37.081Z,2.10
2023-03-21T23:42:22.804Z,2.13
2023-03-21T23:45:08.488Z,2.75
2023-03-21T23:47:53.328Z,2.27
2023-03-21T23:50:39.407Z,2.25
2023-03-21T23:53:24.876Z,2.40
2023-03-21T23:56:19.757Z,2.45
2023-03-21T23:59:05.247Z,1.77
